createdAt,value
2018-09-09T00:00:25.222Z,90.00
2018-09-09T00:02:53.970Z,90.00
2018-09-09T00:05:22.755Z,90.00
2018-09-09T00:07:51.455Z,90.30
2018-09-09T00:10:20.290Z,89.40
2018-09-09T00:12:49.997Z,87.90
2018-09-09T00:15:18.813Z,87.20
2018-09-09T00:17:47.647Z,87.90
2018-09-09T00:20:16.363Z,86.70
2018-09-09T00:22:45.669Z,87.10
2018-09-09T00:25:14.514Z,86.50
2018-09-09T00:27:45.829Z,86.20
2018-09-09T00:30:14.813Z,86.50
2018-09-09T00:32:43.561Z,87.50
2018-09-09T00:35:12.766Z,87.90
2018-09-09T00:37:41.507Z,89.10
2018-09-09T00:40:10.139Z,89.70
2018-09-09T00:42:45.790Z,90.20
2018-09-09T00:45:20.414Z,90.60
2018-09-09T00:47:53.417Z,90.80
2018-09-09T00:50:35.268Z,91.00
2018-09-09T00:53:13.435Z,90.90
2018-09-09T00:55:47.575Z,90.90
2018-09-09T00:58:25.346Z,90.70
2018-09-09T01:01:02.731Z,90.90
2018-09-09T01:03:36.274Z,90.90
2018-09-09T01:06:10.041Z,90.90
2018-09-09T01:08:42.511Z,91.00
2018-09-09T01:11:12.934Z,90.90
2018-09-09T01:13:41.791Z,91.00
2018-09-09T01:16:10.503Z,91.30
2018-09-09T01:18:40.133Z,91.50
2018-09-09T01:21:10.510Z,90.80
2018-09-09T01:23:44.474Z,90.10
2018-09-09T01:26:13.085Z,89.80
2018-09-09T01:28:41.759Z,89.80
2018-09-09T01:31:13.051Z,89.70
2018-09-09T01:33:49.226Z,89.30
2018-09-09T01:36:22.914Z,89.30
2018-09-09T01:38:57.275Z,87.00
2018-09-09T01:41:30.562Z,89.70
2018-09-09T01:44:04.208Z,90.10
2018-09-09T01:46:37.736Z,89.30
2018-09-09T01:49:08.080Z,89.10
2018-09-09T01:51:40.734Z,89.80
2018-09-09T01:54:10.817Z,89.70
2018-09-09T01:58:08.958Z,89.10
2018-09-09T02:00:38.541Z,89.80
2018-09-09T02:03:10.396Z,89.40
2018-09-09T02:05:40.003Z,89.70
2018-09-09T02:08:08.820Z,90.30
2018-09-09T02:10:37.600Z,90.50
2018-09-09T02:13:06.416Z,90.70
2018-09-09T02:15:39.148Z,90.80
2018-09-09T02:18:07.785Z,90.80
2018-09-09T02:20:45.048Z,91.00
2018-09-09T02:23:13.773Z,91.70
2018-09-09T02:25:43.149Z,92.00
2018-09-09T02:28:12.282Z,92.10
2018-09-09T02:30:48.235Z,92.10
2018-09-09T02:33:24.532Z,92.10
2018-09-09T02:35:58.859Z,91.90
2018-09-09T02:38:32.193Z,91.80
2018-09-09T02:41:05.479Z,91.80
2018-09-09T02:43:40.503Z,91.80
2018-09-09T02:46:16.898Z,91.60
2018-09-09T02:48:49.202Z,91.30
2018-09-09T02:51:18.474Z,91.50
2018-09-09T02:53:47.082Z,92.30
2018-09-09T02:56:15.724Z,92.70
2018-09-09T02:58:44.695Z,92.50
2018-09-09T03:01:13.351Z,91.90
2018-09-09T03:03:44.574Z,91.50
2018-09-09T03:06:13.329Z,91.40
2018-09-09T03:08:47.723Z,91.50
2018-09-09T03:11:16.533Z,91.50
2018-09-09T03:13:51.335Z,91.70
2018-09-09T03:16:19.886Z,91.20
2018-09-09T03:18:50.282Z,91.20
2018-09-09T03:21:23.937Z,91.10
2018-09-09T03:24:00.412Z,91.00
2018-09-09T03:26:36.887Z,91.20
2018-09-09T03:29:10.404Z,91.40
2018-09-09T03:31:45.671Z,91.80
2018-09-09T03:34:23.416Z,92.10
2018-09-09T03:36:58.039Z,92.20
2018-09-09T03:39:45.640Z,92.60
2018-09-09T03:42:36.072Z,92.70
2018-09-09T03:45:20.784Z,92.30
2018-09-09T03:48:00.806Z,91.70
2018-09-09T03:50:37.379Z,91.50
2018-09-09T03:53:17.137Z,91.40
2018-09-09T03:56:00.964Z,91.50
2018-09-09T04:01:36.186Z,91.50
2018-09-09T04:04:18.708Z,91.20
2018-09-09T04:07:18.948Z,91.80
2018-09-09T04:10:05.252Z,92.10
2018-09-09T04:12:51.249Z,92.20
2018-09-09T04:15:39.368Z,92.50
2018-09-09T04:18:30.211Z,92.40
2018-09-09T04:21:16.511Z,92.40
2018-09-09T04:23:47.653Z,92.70
2018-09-09T04:26:43.233Z,92.40
2018-09-09T04:29:26.415Z,92.40
2018-09-09T04:32:19.479Z,92.70
2018-09-09T04:35:04.493Z,92.80
2018-09-09T04:37:46.730Z,92.70
2018-09-09T04:40:18.970Z,93.20
2018-09-09T04:42:47.600Z,93.30
2018-09-09T04:45:20.587Z,93.30
2018-09-09T04:47:49.454Z,93.30
2018-09-09T04:50:18.083Z,93.30
2018-09-09T04:52:46.690Z,93.00
2018-09-09T04:55:15.319Z,92.90
2018-09-09T04:57:44.966Z,93.00
2018-09-09T05:01:44.021Z,92.90
2018-09-09T05:04:12.764Z,92.90
2018-09-09T05:06:41.397Z,93.00
2018-09-09T05:09:10.338Z,93.10
2018-09-09T05:11:38.938Z,93.40
2018-09-09T05:14:07.953Z,93.00
2018-09-09T05:16:55.847Z,93.20
2018-09-09T05:19:37.987Z,93.00
2018-09-09T05:22:15.085Z,93.50
2018-09-09T05:24:45.554Z,93.60
2018-09-09T05:27:16.139Z,93.30
2018-09-09T05:29:45.207Z,93.20
2018-09-09T05:32:16.997Z,93.30
2018-09-09T05:34:45.581Z,92.90
2018-09-09T09:22:24.427Z,73.50
2018-09-09T09:24:54.233Z,76.00
2018-09-09T09:27:22.954Z,73.70
2018-09-09T09:29:58.066Z,73.80
2018-09-09T09:32:27.146Z,73.60
2018-09-09T09:34:56.338Z,73.90
2018-09-09T09:37:26.215Z,73.50
2018-09-09T09:39:55.866Z,74.10
2018-09-09T09:42:25.230Z,73.50
2018-09-09T09:44:54.254Z,72.80
2018-09-09T09:47:22.859Z,72.40
2018-09-09T09:49:51.479Z,71.20
2018-09-09T09:52:20.107Z,72.70
2018-09-09T09:54:48.767Z,71.80
2018-09-09T09:57:17.901Z,72.60
2018-09-09T09:59:46.623Z,71.20
2018-09-09T10:02:15.287Z,71.40
2018-09-09T10:04:43.821Z,71.20
2018-09-09T10:07:12.569Z,71.30
2018-09-09T10:09:41.292Z,70.00
2018-09-09T10:12:10.157Z,71.10
2018-09-09T10:14:39.138Z,66.70
2018-09-09T10:17:07.778Z,62.60
2018-09-09T10:19:36.991Z,62.00
2018-09-09T10:22:07.451Z,61.80
2018-09-09T10:24:36.285Z,62.40
2018-09-09T10:27:05.478Z,57.80
2018-09-09T10:29:34.359Z,55.10
2018-09-09T10:32:03.362Z,53.40
2018-09-09T10:34:32.704Z,52.70
2018-09-09T10:37:01.385Z,52.70
2018-09-09T10:39:30.243Z,51.10
2018-09-09T10:41:58.978Z,49.80
2018-09-09T10:44:27.967Z,48.10
2018-09-09T10:46:56.743Z,48.90
2018-09-09T10:49:25.371Z,54.50
2018-09-09T10:51:54.033Z,54.10
2018-09-09T10:54:22.754Z,52.70
2018-09-09T10:56:51.438Z,51.10
2018-09-09T10:59:20.857Z,49.90
2018-09-09T11:01:49.673Z,48.60
2018-09-09T11:04:19.051Z,46.70
2018-09-09T11:06:47.877Z,45.80
2018-09-09T11:09:20.834Z,45.30
2018-09-09T11:11:50.353Z,44.50
2018-09-09T11:14:19.210Z,44.40
2018-09-09T11:16:47.983Z,43.10
2018-09-09T11:19:17.206Z,43.30
2018-09-09T11:21:52.130Z,43.10
2018-09-09T11:24:25.543Z,44.30
2018-09-09T11:26:54.668Z,41.90
2018-09-09T11:29:23.601Z,40.00
2018-09-09T11:31:52.367Z,39.70
2018-09-09T11:34:21.250Z,41.00
2018-09-09T11:36:51.037Z,40.70
2018-09-09T11:39:19.887Z,39.20
2018-09-09T11:41:48.628Z,38.30
2018-09-09T11:44:17.293Z,36.50
2018-09-09T11:46:46.040Z,37.10
2018-09-09T11:49:14.770Z,37.00
2018-09-09T11:51:43.660Z,36.60
2018-09-09T11:54:12.534Z,36.60
2018-09-09T11:56:41.436Z,36.40
2018-09-09T11:59:10.428Z,37.70
2018-09-09T12:01:39.409Z,39.00
2018-09-09T12:04:08.295Z,39.90
2018-09-09T12:06:37.026Z,38.60
2018-09-09T12:09:08.400Z,38.20
2018-09-09T12:11:37.174Z,37.10
2018-09-09T12:14:06.406Z,35.60
2018-09-09T12:16:35.475Z,36.80
2018-09-09T12:19:04.799Z,38.10
2018-09-09T12:21:33.916Z,37.50
2018-09-09T12:24:03.100Z,36.80
2018-09-09T12:26:32.329Z,34.90
2018-09-09T12:29:01.174Z,35.70
2018-09-09T12:31:29.880Z,34.20
2018-09-09T12:33:58.564Z,35.90
2018-09-09T12:36:27.407Z,36.00
2018-09-09T12:38:56.302Z,37.80
2018-09-09T12:41:24.988Z,38.50
2018-09-09T12:43:58.844Z,36.30
2018-09-09T12:46:32.674Z,34.40
2018-09-09T12:49:08.172Z,32.80
2018-09-09T12:51:37.287Z,31.80
2018-09-09T12:54:06.290Z,30.40
2018-09-09T12:56:35.094Z,29.00
2018-09-09T12:59:03.927Z,27.50
2018-09-09T13:01:32.671Z,27.00
2018-09-09T13:04:01.362Z,28.10
2018-09-09T13:06:30.490Z,28.90
2018-09-09T13:08:59.131Z,29.60
2018-09-09T13:11:27.956Z,29.90
2018-09-09T13:13:56.695Z,29.40
2018-09-09T13:16:28.136Z,28.70
2018-09-09T13:18:56.968Z,26.90
2018-09-09T13:21:25.862Z,27.30
2018-09-09T13:23:55.699Z,26.60
2018-09-09T13:26:24.424Z,27.00
2018-09-09T13:28:53.073Z,27.10
2018-09-09T13:31:21.750Z,26.60
2018-09-09T13:33:50.646Z,27.50
2018-09-09T13:36:19.457Z,27.90
2018-09-09T13:38:48.278Z,28.10
2018-09-09T13:41:18.174Z,28.00
2018-09-09T13:43:47.195Z,28.70
2018-09-09T13:46:15.889Z,29.00
2018-09-09T13:48:44.740Z,28.90
2018-09-09T13:51:13.606Z,28.50
2018-09-09T13:53:42.333Z,28.70
2018-09-09T13:56:11.141Z,29.40
2018-09-09T13:58:40.021Z,29.50
2018-09-09T14:01:08.772Z,30.00
2018-09-09T14:03:37.722Z,29.90
2018-09-09T14:06:07.200Z,30.60
2018-09-09T14:08:36.880Z,31.60
2018-09-09T14:11:05.750Z,33.90
2018-09-09T14:13:40.445Z,35.00
2018-09-09T14:16:10.866Z,36.10
2018-09-09T14:18:39.842Z,36.40
2018-09-09T14:21:08.859Z,37.20
2018-09-09T14:23:37.539Z,37.60
2018-09-09T14:26:06.462Z,36.90
2018-09-09T14:28:35.122Z,37.20
2018-09-09T14:31:03.885Z,37.60
2018-09-09T14:33:32.706Z,38.50
2018-09-09T14:36:01.390Z,38.60
2018-09-09T14:38:29.974Z,38.80
2018-09-09T14:40:58.802Z,38.80
2018-09-09T14:43:38.946Z,39.40
2018-09-09T14:46:12.658Z,38.60
2018-09-09T14:48:41.688Z,39.30
2018-09-09T14:51:10.320Z,39.60
2018-09-09T14:53:39.054Z,39.70
2018-09-09T14:56:08.891Z,40.00
2018-09-09T14:58:40.482Z,39.90
2018-09-09T15:01:09.237Z,41.60
2018-09-09T15:03:38.460Z,40.30
2018-09-09T15:06:07.146Z,41.50
2018-09-09T15:08:35.910Z,41.80
2018-09-09T15:11:04.796Z,41.80
2018-09-09T15:13:33.630Z,41.70
2018-09-09T15:16:02.452Z,41.80
2018-09-09T15:18:31.255Z,42.60
2018-09-09T15:21:00.211Z,42.30
2018-09-09T15:23:28.960Z,42.60
2018-09-09T15:25:57.663Z,41.90
2018-09-09T15:29:55.826Z,43.00
2018-09-09T15:32:25.111Z,41.80
2018-09-09T15:34:54.139Z,41.70
2018-09-09T15:37:22.989Z,41.80
2018-09-09T15:39:52.629Z,42.00
2018-09-09T15:42:21.460Z,41.70
2018-09-09T15:44:56.247Z,41.00
2018-09-09T15:47:25.135Z,42.10
2018-09-09T15:49:54.076Z,42.60
2018-09-09T15:52:23.063Z,42.90
2018-09-09T15:54:52.059Z,43.40
2018-09-09T15:57:20.907Z,43.90
2018-09-09T15:59:49.866Z,44.10
2018-09-09T16:02:18.608Z,43.60
2018-09-09T16:04:47.507Z,43.60
2018-09-09T16:07:16.572Z,43.30
2018-09-09T16:09:45.452Z,44.40
2018-09-09T16:12:15.631Z,44.30
2018-09-09T16:14:44.721Z,44.30
2018-09-09T16:19:47.974Z,44.10
2018-09-09T16:24:53.042Z,44.40
2018-09-09T16:27:21.949Z,45.50
2018-09-09T16:29:51.322Z,45.70
2018-09-09T16:32:20.135Z,45.90
2018-09-09T16:34:48.887Z,46.40
2018-09-09T16:37:17.813Z,46.20
2018-09-09T16:39:46.811Z,46.60
2018-09-09T16:42:15.440Z,47.30
2018-09-09T16:44:44.217Z,47.00
2018-09-09T16:47:12.879Z,46.80
2018-09-09T16:49:41.712Z,48.80
2018-09-09T16:52:10.486Z,47.70
2018-09-09T16:54:39.876Z,48.10
2018-09-09T16:57:08.659Z,48.00
2018-09-09T16:59:37.492Z,48.70
2018-09-09T17:02:06.319Z,49.00
2018-09-09T17:04:35.315Z,49.10
2018-09-09T17:07:09.436Z,50.30
2018-09-09T17:09:44.852Z,50.90
2018-09-09T17:12:17.833Z,51.30
2018-09-09T17:14:46.678Z,52.00
2018-09-09T17:17:15.556Z,53.60
2018-09-09T17:19:44.316Z,54.70
2018-09-09T17:22:13.199Z,55.50
2018-09-09T17:24:42.086Z,56.40
2018-09-09T17:27:10.799Z,56.90
2018-09-09T17:29:39.906Z,57.70
2018-09-09T17:32:08.683Z,58.60
2018-09-09T17:34:37.423Z,59.10
2018-09-09T17:37:06.162Z,59.30
2018-09-09T17:39:36.174Z,59.10
2018-09-09T17:42:05.377Z,59.50
2018-09-09T17:44:34.139Z,59.50
2018-09-09T17:47:02.946Z,59.60
2018-09-09T17:49:31.820Z,60.40
2018-09-09T17:52:00.771Z,60.90
2018-09-09T17:54:32.081Z,61.00
2018-09-09T17:57:02.616Z,62.50
2018-09-09T17:59:34.400Z,61.40
2018-09-09T18:02:03.490Z,62.60
2018-09-09T18:04:33.872Z,62.80
2018-09-09T18:07:02.956Z,62.60
2018-09-09T18:09:32.070Z,62.50
2018-09-09T18:12:01.736Z,63.20
2018-09-09T18:14:30.465Z,62.60
2018-09-09T18:17:00.786Z,63.20
2018-09-09T18:19:31.187Z,63.70
2018-09-09T18:22:00.228Z,64.70
2018-09-09T18:24:29.071Z,64.90
2018-09-09T18:26:57.797Z,65.40
2018-09-09T18:29:26.855Z,65.30
2018-09-09T18:31:55.806Z,65.50
2018-09-09T18:34:24.896Z,65.40
2018-09-09T18:36:53.741Z,64.70
2018-09-09T18:39:22.487Z,66.20
2018-09-09T18:41:52.402Z,66.50
2018-09-09T18:44:21.555Z,67.20
2018-09-09T18:46:50.321Z,67.50
2018-09-09T18:49:19.286Z,68.10
2018-09-09T18:51:48.283Z,68.80
2018-09-09T18:54:20.691Z,70.00
2018-09-09T18:56:50.452Z,70.70
2018-09-09T18:59:20.712Z,71.20
2018-09-09T19:01:54.901Z,71.70
2018-09-09T19:04:24.532Z,72.00
2018-09-09T19:06:57.751Z,72.20
2018-09-09T19:09:27.229Z,72.70
2018-09-09T19:11:56.274Z,72.70
2018-09-09T19:14:25.047Z,72.80
2018-09-09T19:16:54.072Z,72.60
2018-09-09T19:19:36.360Z,74.10
2018-09-09T19:23:43.226Z,72.00
2018-09-09T19:26:12.405Z,71.50
2018-09-09T19:28:41.136Z,71.20
2018-09-09T19:31:10.087Z,71.40
2018-09-09T19:33:38.799Z,71.90
2018-09-09T19:36:07.820Z,71.90
2018-09-09T19:38:36.526Z,72.30
2018-09-09T19:41:05.370Z,72.80
2018-09-09T19:43:34.117Z,73.10
2018-09-09T19:46:03.158Z,73.20
2018-09-09T19:48:32.016Z,73.20
2018-09-09T19:51:01.105Z,73.40
2018-09-09T19:53:30.111Z,73.70
2018-09-09T19:55:59.095Z,73.40
2018-09-09T19:58:29.796Z,73.60
2018-09-09T20:00:58.707Z,73.70
2018-09-09T20:03:27.779Z,73.80
2018-09-09T20:05:56.942Z,73.30
2018-09-09T20:08:26.962Z,73.80
2018-09-09T20:10:56.694Z,74.40
2018-09-09T20:13:31.782Z,74.20
2018-09-09T20:16:00.761Z,75.00
2018-09-09T20:18:29.505Z,75.50
2018-09-09T20:20:58.929Z,74.90
2018-09-09T20:23:27.935Z,74.40
2018-09-09T20:25:56.622Z,74.10
2018-09-09T20:28:25.768Z,74.00
2018-09-09T20:30:57.806Z,73.90
2018-09-09T20:33:26.734Z,73.40
2018-09-09T20:35:55.715Z,73.90
2018-09-09T20:38:24.687Z,75.10
2018-09-09T20:40:53.567Z,75.10
2018-09-09T20:43:22.476Z,75.50
2018-09-09T20:45:51.525Z,76.10
2018-09-09T20:48:20.322Z,76.20
2018-09-09T20:50:49.118Z,76.10
2018-09-09T20:53:18.043Z,76.70
2018-09-09T20:55:46.826Z,76.90
2018-09-09T20:58:15.598Z,76.90
2018-09-09T21:00:44.620Z,77.00
2018-09-09T21:03:13.422Z,76.70
2018-09-09T21:05:42.069Z,76.90
2018-09-09T21:08:10.920Z,77.30
2018-09-09T21:10:39.748Z,78.50
2018-09-09T21:13:09.083Z,77.90
2018-09-09T21:15:38.002Z,76.00
2018-09-09T21:18:06.773Z,78.30
2018-09-09T21:20:35.537Z,77.90
2018-09-09T21:23:05.370Z,77.70
2018-09-09T21:25:34.181Z,77.60
2018-09-09T21:28:02.892Z,77.90
2018-09-09T21:30:31.997Z,77.70
2018-09-09T21:33:00.871Z,77.70
2018-09-09T21:35:29.883Z,78.30
2018-09-09T21:37:58.949Z,78.70
2018-09-09T21:40:27.917Z,79.40
2018-09-09T21:42:56.726Z,80.20
2018-09-09T21:45:25.630Z,79.40
2018-09-09T21:47:54.686Z,80.30
2018-09-09T21:50:23.655Z,78.20
2018-09-09T21:52:52.552Z,80.60
2018-09-09T21:55:21.529Z,80.60
2018-09-09T21:57:50.637Z,80.40
2018-09-09T22:00:19.325Z,79.30
2018-09-09T22:02:48.329Z,81.80
2018-09-09T22:05:17.070Z,82.00
2018-09-09T22:07:46.597Z,82.90
2018-09-09T22:10:15.811Z,82.90
2018-09-09T22:12:44.573Z,82.90
2018-09-09T22:15:13.824Z,82.00
2018-09-09T22:17:42.463Z,83.10
2018-09-09T22:20:11.256Z,83.10
2018-09-09T22:22:40.195Z,83.10
2018-09-09T22:25:10.283Z,83.10
2018-09-09T22:27:38.960Z,83.10
2018-09-09T22:30:07.865Z,83.90
2018-09-09T22:32:36.751Z,83.20
2018-09-09T22:35:05.824Z,81.30
2018-09-09T22:37:34.655Z,83.10
2018-09-09T22:40:03.598Z,82.90
2018-09-09T22:42:32.320Z,84.00
2018-09-09T22:45:02.396Z,83.90
2018-09-09T22:47:41.359Z,84.30
2018-09-09T22:50:14.859Z,84.50
2018-09-09T22:52:48.794Z,85.30
2018-09-09T22:55:17.588Z,85.50
2018-09-09T22:57:46.377Z,85.60
2018-09-09T23:00:15.236Z,85.40
2018-09-09T23:02:44.108Z,85.20
2018-09-09T23:05:17.769Z,85.90
2018-09-09T23:07:52.076Z,85.90
2018-09-09T23:10:23.040Z,87.40
2018-09-09T23:12:56.923Z,85.80
2018-09-09T23:15:27.453Z,85.60
2018-09-09T23:17:57.270Z,86.00
2018-09-09T23:20:29.368Z,86.00
2018-09-09T23:22:59.332Z,86.50
2018-09-09T23:25:28.332Z,86.60
2018-09-09T23:27:57.240Z,87.40
2018-09-09T23:30:28.030Z,87.60
2018-09-09T23:32:57.469Z,87.50
2018-09-09T23:35:26.439Z,87.50
2018-09-09T23:37:55.694Z,86.70
2018-09-09T23:40:24.635Z,87.40
2018-09-09T23:42:53.367Z,86.40
2018-09-09T23:45:22.032Z,86.30
2018-09-09T23:47:51.692Z,86.40
2018-09-09T23:50:20.584Z,86.30
2018-09-09T23:52:49.412Z,86.30
2018-09-09T23:55:21.588Z,86.50
2018-09-09T23:57:50.319Z,85.40
